createdAt,value
2018-12-08T00:01:01.125Z,-0.23
2018-12-08T00:03:29.960Z,-0.25
2018-12-08T00:05:58.916Z,-0.34
2018-12-08T00:08:28.111Z,-0.43
2018-12-08T00:10:56.954Z,-0.35
2018-12-08T00:13:25.761Z,-0.21
2018-12-08T00:15:54.634Z,-0.21
2018-12-08T00:18:23.881Z,-0.26
2018-12-08T00:20:52.840Z,-0.30
2018-12-08T00:23:21.687Z,-0.40
2018-12-08T00:25:50.488Z,-0.41
2018-12-08T00:28:19.331Z,-0.46
2018-12-08T00:30:59.154Z,-0.52
2018-12-08T00:33:28.077Z,-0.42
2018-12-08T00:35:56.996Z,-0.28
2018-12-08T00:38:25.898Z,-0.40
2018-12-08T00:40:54.739Z,-0.46
2018-12-08T00:43:23.608Z,-0.61
2018-12-08T00:45:52.580Z,-0.40
2018-12-08T00:48:21.483Z,-0.37
2018-12-08T00:50:50.296Z,-0.43
2018-12-08T00:53:19.128Z,-0.47
2018-12-08T00:55:47.929Z,-0.51
2018-12-08T00:58:16.813Z,-0.45
2018-12-08T01:00:45.727Z,-0.45
2018-12-08T01:03:14.507Z,-0.44
2018-12-08T01:05:43.350Z,-0.37
2018-12-08T01:08:12.375Z,-0.42
2018-12-08T01:10:41.192Z,-0.46
2018-12-08T01:13:10.070Z,-0.45
2018-12-08T01:15:38.951Z,-0.46
2018-12-08T01:18:07.852Z,-0.49
2018-12-08T01:20:36.647Z,-0.48
2018-12-08T01:23:05.509Z,-0.58
2018-12-08T01:25:34.488Z,-0.59
2018-12-08T01:28:03.351Z,-0.46
2018-12-08T01:30:32.332Z,-0.48
2018-12-08T01:33:01.352Z,-0.48
2018-12-08T01:35:30.267Z,-0.48
2018-12-08T01:37:59.129Z,-0.48
2018-12-08T01:40:27.945Z,-0.50
2018-12-08T01:42:56.934Z,-0.55
2018-12-08T01:45:26.478Z,-0.60
2018-12-08T01:47:55.455Z,-0.70
2018-12-08T01:50:24.346Z,-0.62
2018-12-08T01:52:53.338Z,-0.45
2018-12-08T01:55:22.307Z,-0.47
2018-12-08T01:57:51.193Z,-0.50
2018-12-08T02:00:20.123Z,-0.57
2018-12-08T02:02:48.940Z,-0.48
2018-12-08T02:05:17.859Z,-0.40
2018-12-08T02:07:46.635Z,-0.40
2018-12-08T02:10:15.523Z,-0.44
2018-12-08T02:12:44.348Z,-0.40
2018-12-08T02:15:13.407Z,-0.37
2018-12-08T02:17:42.247Z,-0.43
2018-12-08T02:20:11.084Z,-0.53
2018-12-08T02:22:39.906Z,-0.62
2018-12-08T02:25:08.743Z,-0.70
2018-12-08T02:27:37.588Z,-0.77
2018-12-08T02:30:06.627Z,-0.73
2018-12-08T02:32:35.648Z,-0.66
2018-12-08T02:35:04.936Z,-0.67
2018-12-08T02:37:33.767Z,-0.67
2018-12-08T02:40:02.643Z,-0.70
2018-12-08T02:42:31.645Z,-0.73
2018-12-08T02:45:00.510Z,-0.70
2018-12-08T02:47:29.528Z,-0.72
2018-12-08T02:49:58.497Z,-0.74
2018-12-08T02:52:27.539Z,-0.77
2018-12-08T02:54:56.360Z,-0.74
2018-12-08T02:57:25.199Z,-0.79
2018-12-08T02:59:54.041Z,-0.79
2018-12-08T03:02:22.923Z,-0.75
2018-12-08T03:04:51.871Z,-0.76
2018-12-08T03:07:20.678Z,-0.84
2018-12-08T03:09:49.611Z,-0.73
2018-12-08T03:12:18.470Z,-0.76
2018-12-08T03:14:47.419Z,-0.83
2018-12-08T03:17:16.366Z,-0.79
2018-12-08T03:19:45.232Z,-0.82
2018-12-08T03:22:14.097Z,-0.89
2018-12-08T03:24:42.875Z,-1.05
2018-12-08T03:27:11.762Z,-0.94
2018-12-08T03:29:40.653Z,-0.88
2018-12-08T03:32:09.555Z,-0.90
2018-12-08T03:34:38.487Z,-0.93
2018-12-08T03:37:07.375Z,-0.92
2018-12-08T03:39:36.319Z,-0.92
2018-12-08T03:42:05.409Z,-0.93
2018-12-08T03:44:34.223Z,-0.93
2018-12-08T03:47:03.109Z,-0.89
2018-12-08T03:49:31.985Z,-0.93
2018-12-08T03:52:00.791Z,-0.93
2018-12-08T03:54:29.687Z,-0.93
2018-12-08T03:56:58.617Z,-0.92
2018-12-08T03:59:27.492Z,-0.92
2018-12-08T04:01:56.410Z,-0.90
2018-12-08T04:04:25.212Z,-0.88
2018-12-08T04:06:54.026Z,-0.89
2018-12-08T04:09:22.879Z,-0.90
2018-12-08T04:11:51.780Z,-0.98
2018-12-08T04:14:20.656Z,-0.97
2018-12-08T04:16:49.661Z,-0.96
2018-12-08T04:19:18.480Z,-1.00
2018-12-08T04:21:47.493Z,-1.03
2018-12-08T04:24:16.376Z,-1.06
2018-12-08T04:26:45.300Z,-1.16
2018-12-08T04:29:14.311Z,-1.02
2018-12-08T04:31:43.103Z,-1.03
2018-12-08T04:34:11.949Z,-1.07
2018-12-08T04:36:40.779Z,-0.99
2018-12-08T04:39:09.699Z,-1.00
2018-12-08T04:41:38.541Z,-1.01
2018-12-08T04:44:07.457Z,-1.05
2018-12-08T04:46:36.333Z,-1.06
2018-12-08T04:49:05.163Z,-1.05
2018-12-08T04:51:33.964Z,-1.08
2018-12-08T04:54:02.894Z,-1.11
2018-12-08T04:56:31.716Z,-1.14
2018-12-08T04:59:00.686Z,-1.06
2018-12-08T05:01:29.642Z,-1.08
2018-12-08T05:03:58.397Z,-1.13
2018-12-08T05:06:27.326Z,-1.14
2018-12-08T05:08:56.145Z,-1.15
2018-12-08T05:11:24.929Z,-1.12
2018-12-08T05:13:53.788Z,-1.07
2018-12-08T05:16:22.639Z,-1.10
2018-12-08T05:18:51.455Z,-1.19
2018-12-08T05:21:20.272Z,-1.06
2018-12-08T05:23:49.177Z,-1.08
2018-12-08T05:26:18.052Z,-1.21
2018-12-08T05:28:46.957Z,-1.17
2018-12-08T05:31:15.865Z,-1.08
2018-12-08T05:33:44.679Z,-1.12
2018-12-08T05:36:13.603Z,-1.09
2018-12-08T05:38:42.443Z,-1.16
2018-12-08T05:41:11.380Z,-1.20
2018-12-08T05:43:40.219Z,-1.32
2018-12-08T05:46:09.100Z,-1.20
2018-12-08T05:48:37.920Z,-1.20
2018-12-08T05:51:06.862Z,-1.32
2018-12-08T05:53:35.679Z,-1.11
2018-12-08T05:56:04.641Z,-0.98
2018-12-08T05:58:33.442Z,-0.94
2018-12-08T06:01:02.250Z,-1.12
2018-12-08T06:03:31.160Z,-1.02
2018-12-08T06:05:59.948Z,-0.86
2018-12-08T06:08:28.785Z,-0.85
2018-12-08T06:10:57.608Z,-0.84
2018-12-08T06:13:26.461Z,-0.86
2018-12-08T06:15:55.430Z,-0.89
2018-12-08T06:18:24.242Z,-0.90
2018-12-08T06:20:53.044Z,-0.87
2018-12-08T06:23:21.880Z,-0.83
2018-12-08T06:25:50.910Z,-0.81
2018-12-08T06:28:28.915Z,-0.79
2018-12-08T06:30:57.809Z,-0.70
2018-12-08T06:33:27.069Z,-0.67
2018-12-08T06:35:56.327Z,-0.70
2018-12-08T06:38:25.671Z,-0.57
2018-12-08T06:40:54.705Z,-0.44
2018-12-08T06:43:23.921Z,-0.46
2018-12-08T06:45:53.184Z,-0.53
2018-12-08T06:48:22.388Z,-0.55
2018-12-08T06:50:51.583Z,-0.48
2018-12-08T06:53:20.681Z,-0.11
2018-12-08T06:55:49.443Z,-0.06
2018-12-08T06:58:18.482Z,-0.15
2018-12-08T07:00:47.656Z,-0.03
2018-12-08T07:03:16.533Z,0.15
2018-12-08T07:05:45.375Z,0.39
2018-12-08T07:08:14.231Z,0.61
2018-12-08T07:10:42.996Z,0.92
2018-12-08T07:13:11.838Z,1.16
2018-12-08T07:15:40.621Z,1.47
2018-12-08T07:18:09.482Z,1.62
2018-12-08T07:20:38.279Z,1.77
2018-12-08T07:23:07.063Z,1.92
2018-12-08T07:25:36.021Z,2.11
2018-12-08T07:28:06.415Z,2.30
2018-12-08T07:30:35.500Z,2.49
2018-12-08T07:33:04.420Z,2.72
2018-12-08T07:35:33.633Z,2.96
2018-12-08T07:38:02.570Z,3.12
2018-12-08T07:40:31.468Z,3.22
2018-12-08T07:43:00.418Z,3.01
2018-12-08T07:45:29.398Z,3.09
2018-12-08T07:47:58.398Z,3.11
2018-12-08T07:50:27.210Z,3.13
2018-12-08T07:52:56.155Z,3.25
2018-12-08T07:55:25.078Z,3.33
2018-12-08T07:57:53.998Z,3.31
2018-12-08T08:00:22.967Z,3.25
2018-12-08T08:02:51.787Z,3.21
2018-12-08T08:05:20.535Z,3.24
2018-12-08T08:07:49.368Z,3.44
2018-12-08T08:10:18.170Z,3.71
2018-12-08T08:12:46.977Z,3.99
2018-12-08T08:15:15.848Z,4.14
2018-12-08T08:17:44.656Z,4.50
2018-12-08T08:20:13.566Z,4.98
2018-12-08T08:22:42.534Z,5.40
2018-12-08T08:25:12.105Z,5.77
2018-12-08T08:27:40.949Z,6.13
2018-12-08T08:30:11.791Z,6.21
2018-12-08T08:32:40.562Z,5.97
2018-12-08T08:35:09.647Z,5.64
2018-12-08T08:37:38.597Z,5.59
2018-12-08T08:40:09.720Z,5.78
2018-12-08T08:42:38.517Z,5.86
2018-12-08T08:45:08.338Z,6.39
2018-12-08T08:47:37.256Z,6.97
2018-12-08T08:50:08.829Z,7.13
2018-12-08T08:52:37.739Z,7.35
2018-12-08T08:55:07.287Z,7.98
2018-12-08T08:57:36.144Z,8.63
2018-12-08T09:00:07.012Z,9.15
2018-12-08T09:02:35.926Z,9.48
2018-12-08T09:05:05.424Z,9.94
2018-12-08T09:07:34.327Z,10.20
2018-12-08T09:10:03.219Z,10.46
2018-12-08T09:12:31.986Z,10.67
2018-12-08T09:15:00.904Z,10.79
2018-12-08T09:17:29.748Z,10.95
2018-12-08T09:19:58.594Z,10.98
2018-12-08T09:22:27.403Z,10.88
2018-12-08T09:24:56.377Z,10.97
2018-12-08T09:27:25.315Z,10.83
2018-12-08T09:29:54.155Z,11.02
2018-12-08T09:32:23.017Z,11.21
2018-12-08T09:34:51.805Z,11.31
2018-12-08T09:37:20.607Z,11.55
2018-12-08T09:39:49.463Z,12.01
2018-12-08T09:42:18.295Z,12.44
2018-12-08T09:44:47.132Z,12.86
2018-12-08T09:47:16.012Z,13.26
2018-12-08T09:49:44.863Z,13.28
2018-12-08T09:52:13.658Z,13.68
2018-12-08T09:54:42.644Z,13.46
2018-12-08T09:57:11.499Z,13.55
2018-12-08T09:59:40.250Z,13.69
2018-12-08T10:02:09.070Z,13.86
2018-12-08T10:04:38.422Z,13.89
2018-12-08T10:07:07.370Z,13.79
2018-12-08T10:09:36.273Z,13.44
2018-12-08T10:12:05.283Z,13.44
2018-12-08T10:14:34.239Z,13.27
2018-12-08T10:17:02.992Z,13.17
2018-12-08T10:19:31.926Z,12.88
2018-12-08T10:22:00.766Z,12.84
2018-12-08T10:24:29.666Z,13.32
2018-12-08T10:26:58.517Z,13.73
2018-12-08T10:29:28.141Z,13.89
2018-12-08T10:31:57.243Z,13.94
2018-12-08T10:34:26.035Z,14.17
2018-12-08T10:36:54.982Z,14.58
2018-12-08T10:39:23.892Z,14.97
2018-12-08T10:41:52.676Z,14.93
2018-12-08T10:44:21.571Z,14.80
2018-12-08T10:46:50.483Z,14.73
2018-12-08T10:49:19.451Z,14.62
2018-12-08T10:51:48.246Z,13.46
2018-12-08T10:54:17.069Z,13.45
2018-12-08T10:56:45.891Z,13.44
2018-12-08T10:59:14.716Z,13.26
2018-12-08T11:01:48.700Z,13.03
2018-12-08T11:04:17.530Z,12.71
2018-12-08T11:06:46.424Z,12.19
2018-12-08T11:09:15.309Z,11.89
2018-12-08T11:11:44.247Z,11.45
2018-12-08T11:14:13.124Z,10.63
2018-12-08T11:16:41.954Z,10.44
2018-12-08T11:19:10.819Z,10.08
2018-12-08T11:21:39.668Z,9.89
2018-12-08T11:24:08.519Z,9.64
2018-12-08T11:26:37.343Z,9.49
2018-12-08T11:29:06.137Z,9.28
2018-12-08T11:31:35.000Z,9.05
2018-12-08T11:34:03.870Z,8.93
2018-12-08T11:36:32.762Z,9.00
2018-12-08T11:39:01.545Z,8.89
2018-12-08T11:41:30.411Z,8.72
2018-12-08T11:43:59.222Z,8.65
2018-12-08T11:46:28.070Z,8.37
2018-12-08T11:48:56.973Z,8.17
2018-12-08T11:51:25.798Z,8.23
2018-12-08T11:53:54.750Z,8.22
2018-12-08T11:56:23.672Z,8.00
2018-12-08T11:58:52.447Z,8.00
2018-12-08T12:01:21.281Z,8.02
2018-12-08T12:03:50.100Z,7.97
2018-12-08T12:06:18.953Z,8.08
2018-12-08T12:08:47.917Z,8.14
2018-12-08T12:11:17.568Z,8.18
2018-12-08T12:13:46.413Z,8.22
2018-12-08T12:16:15.608Z,8.29
2018-12-08T12:18:44.500Z,8.35
2018-12-08T12:21:13.469Z,8.35
2018-12-08T12:23:42.348Z,8.29
2018-12-08T12:26:11.292Z,8.25
2018-12-08T12:28:40.188Z,8.22
2018-12-08T12:31:09.033Z,8.22
2018-12-08T12:33:37.963Z,8.20
2018-12-08T12:36:06.871Z,8.31
2018-12-08T12:38:35.721Z,8.35
2018-12-08T12:41:04.571Z,8.34
2018-12-08T12:43:33.555Z,8.36
2018-12-08T12:46:02.343Z,8.35
2018-12-08T12:48:32.148Z,8.23
2018-12-08T12:51:01.053Z,7.78
2018-12-08T12:53:29.983Z,7.68
2018-12-08T12:55:58.833Z,7.55
2018-12-08T12:58:27.658Z,7.45
2018-12-08T13:00:56.507Z,7.35
2018-12-08T13:03:25.319Z,7.31
2018-12-08T13:05:54.060Z,7.25
2018-12-08T13:08:22.951Z,7.08
2018-12-08T13:10:51.800Z,6.96
2018-12-08T13:13:20.682Z,6.89
2018-12-08T13:15:49.520Z,6.68
2018-12-08T13:18:18.541Z,6.65
2018-12-08T13:20:48.021Z,6.56
2018-12-08T13:23:16.923Z,6.55
2018-12-08T13:25:45.761Z,6.70
2018-12-08T13:28:14.627Z,6.87
2018-12-08T13:30:43.800Z,7.02
2018-12-08T13:33:12.672Z,7.13
2018-12-08T13:35:57.887Z,7.07
2018-12-08T13:38:26.747Z,6.88
2018-12-08T13:40:55.636Z,6.81
2018-12-08T13:43:24.551Z,6.82
2018-12-08T13:45:53.530Z,6.77
2018-12-08T13:48:24.933Z,6.71
2018-12-08T13:50:54.112Z,6.74
2018-12-08T13:53:22.958Z,6.72
2018-12-08T13:55:51.859Z,6.72
2018-12-08T13:58:20.603Z,6.59
2018-12-08T14:00:49.432Z,6.52
2018-12-08T14:03:18.255Z,6.49
2018-12-08T14:05:47.127Z,6.41
2018-12-08T14:08:15.981Z,6.24
2018-12-08T14:10:44.923Z,6.26
2018-12-08T14:13:13.883Z,6.15
2018-12-08T14:15:42.718Z,6.29
2018-12-08T14:18:11.637Z,6.25
2018-12-08T14:20:40.511Z,5.97
2018-12-08T14:23:09.392Z,5.92
2018-12-08T14:25:38.172Z,6.06
2018-12-08T14:28:07.101Z,5.80
2018-12-08T14:30:35.990Z,5.71
2018-12-08T14:33:04.961Z,5.78
2018-12-08T14:35:33.945Z,5.87
2018-12-08T14:38:02.869Z,5.75
2018-12-08T14:40:31.783Z,5.58
2018-12-08T14:43:00.678Z,5.45
2018-12-08T14:45:29.488Z,5.15
2018-12-08T14:47:58.398Z,5.23
2018-12-08T14:50:27.212Z,5.18
2018-12-08T14:52:56.088Z,5.04
2018-12-08T14:55:24.988Z,4.93
2018-12-08T14:57:53.828Z,4.76
2018-12-08T15:00:22.698Z,4.48
2018-12-08T15:02:51.507Z,4.39
2018-12-08T15:05:20.358Z,4.46
2018-12-08T15:07:49.164Z,4.48
2018-12-08T15:10:18.056Z,4.37
2018-12-08T15:12:46.839Z,4.18
2018-12-08T15:15:15.750Z,4.10
2018-12-08T15:17:44.982Z,4.08
2018-12-08T15:20:14.032Z,3.93
2018-12-08T15:22:43.088Z,3.74
2018-12-08T15:25:12.268Z,3.68
2018-12-08T15:27:41.293Z,3.64
2018-12-08T15:30:11.081Z,3.64
2018-12-08T15:32:40.077Z,3.63
2018-12-08T15:35:10.765Z,3.67
2018-12-08T15:37:40.655Z,3.78
2018-12-08T15:40:10.850Z,3.81
2018-12-08T15:42:40.199Z,3.71
2018-12-08T15:45:11.158Z,3.75
2018-12-08T15:47:40.160Z,3.75
2018-12-08T15:50:11.110Z,3.58
2018-12-08T15:52:41.145Z,3.55
2018-12-08T15:55:10.026Z,3.67
2018-12-08T15:57:39.330Z,3.75
2018-12-08T16:00:11.095Z,3.88
2018-12-08T16:02:40.633Z,3.81
2018-12-08T16:05:09.927Z,3.75
2018-12-08T16:07:38.900Z,3.68
2018-12-08T16:10:09.326Z,3.58
2018-12-08T16:12:38.273Z,3.45
2018-12-08T16:15:08.803Z,3.35
2018-12-08T16:17:37.801Z,3.32
2018-12-08T16:20:10.780Z,3.26
2018-12-08T16:22:40.047Z,3.34
2018-12-08T16:25:09.441Z,3.42
2018-12-08T16:27:38.759Z,3.47
2018-12-08T16:30:09.295Z,3.52
2018-12-08T16:32:38.108Z,3.54
2018-12-08T16:35:07.340Z,3.51
2018-12-08T16:37:36.292Z,3.39
2018-12-08T16:40:05.690Z,3.46
2018-12-08T16:42:34.853Z,3.42
2018-12-08T16:45:04.037Z,3.64
2018-12-08T16:47:33.844Z,3.71
2018-12-08T16:50:02.699Z,3.67
2018-12-08T16:52:31.719Z,3.58
2018-12-08T16:55:00.553Z,3.70
2018-12-08T16:57:29.520Z,3.71
2018-12-08T16:59:58.835Z,3.72
2018-12-08T17:02:27.627Z,3.78
2018-12-08T17:04:57.091Z,3.74
2018-12-08T17:07:26.190Z,3.78
2018-12-08T17:09:55.041Z,3.91
2018-12-08T17:12:24.069Z,3.90
2018-12-08T17:14:52.956Z,3.89
2018-12-08T17:17:21.859Z,3.82
2018-12-08T17:19:50.806Z,3.72
2018-12-08T17:22:19.692Z,3.60
2018-12-08T17:24:48.640Z,3.55
2018-12-08T17:27:17.444Z,3.74
2018-12-08T17:29:46.556Z,3.69
2018-12-08T17:32:15.390Z,3.45
2018-12-08T17:34:44.886Z,3.55
2018-12-08T17:37:13.764Z,3.63
2018-12-08T17:39:42.703Z,3.63
2018-12-08T17:42:11.578Z,3.50
2018-12-08T17:44:40.383Z,3.38
2018-12-08T17:47:09.314Z,3.22
2018-12-08T17:49:39.198Z,3.08
2018-12-08T17:52:08.031Z,2.91
2018-12-08T17:54:38.121Z,2.77
2018-12-08T17:57:07.280Z,2.72
2018-12-08T17:59:36.116Z,2.72
2018-12-08T18:02:05.885Z,2.63
2018-12-08T18:04:34.817Z,2.53
2018-12-08T18:07:03.944Z,2.57
2018-12-08T18:09:32.700Z,2.63
2018-12-08T18:12:01.740Z,2.42
2018-12-08T18:14:30.547Z,2.41
2018-12-08T18:17:00.245Z,2.43
2018-12-08T18:19:29.068Z,2.27
2018-12-08T18:21:58.491Z,2.24
2018-12-08T18:24:27.492Z,2.19
2018-12-08T18:26:56.607Z,2.09
2018-12-08T18:29:26.067Z,2.12
2018-12-08T18:31:54.922Z,2.16
2018-12-08T18:34:24.283Z,2.06
2018-12-08T18:36:53.104Z,1.98
2018-12-08T18:39:22.084Z,1.92
2018-12-08T18:41:51.409Z,2.05
2018-12-08T18:44:21.002Z,2.00
2018-12-08T18:46:51.183Z,1.99
2018-12-08T18:49:20.937Z,2.02
2018-12-08T18:51:50.730Z,1.99
2018-12-08T18:54:20.012Z,2.07
2018-12-08T18:56:48.940Z,2.15
2018-12-08T18:59:17.912Z,2.11
2018-12-08T19:01:46.791Z,1.98
2018-12-08T19:04:15.665Z,2.17
2018-12-08T19:06:44.494Z,2.13
2018-12-08T19:09:13.484Z,2.20
2018-12-08T19:11:42.474Z,2.28
2018-12-08T19:14:11.319Z,2.31
2018-12-08T19:16:40.120Z,2.43
2018-12-08T19:19:09.051Z,2.36
2018-12-08T19:21:38.461Z,2.51
2018-12-08T19:24:07.299Z,2.50
2018-12-08T19:26:36.482Z,2.55
2018-12-08T19:29:05.467Z,2.48
2018-12-08T19:31:36.392Z,2.42
2018-12-08T19:34:05.803Z,2.60
2018-12-08T19:36:35.935Z,2.58
2018-12-08T19:39:06.579Z,2.51
2018-12-08T19:41:35.556Z,2.54
2018-12-08T19:44:05.019Z,2.55
2018-12-08T19:46:33.983Z,2.60
2018-12-08T19:49:02.757Z,2.61
2018-12-08T19:51:32.635Z,2.63
2018-12-08T19:54:01.462Z,2.68
2018-12-08T19:56:30.309Z,2.72
2018-12-08T19:58:59.184Z,2.76
2018-12-08T20:01:28.040Z,2.78
2018-12-08T20:03:56.867Z,2.81
2018-12-08T20:06:25.732Z,2.81
2018-12-08T20:08:55.008Z,2.82
2018-12-08T20:11:23.972Z,2.83
2018-12-08T20:13:52.794Z,2.78
2018-12-08T20:16:21.679Z,2.76
2018-12-08T20:18:50.548Z,2.78
2018-12-08T20:21:19.482Z,2.72
2018-12-08T20:23:48.316Z,2.68
2018-12-08T20:26:17.208Z,2.68
2018-12-08T20:28:46.136Z,2.58
2018-12-08T20:31:15.028Z,2.49
2018-12-08T20:33:43.883Z,2.47
2018-12-08T20:36:12.718Z,2.46
2018-12-08T20:38:41.583Z,2.44
2018-12-08T20:41:10.435Z,2.41
2018-12-08T20:43:39.298Z,2.32
2018-12-08T20:46:08.103Z,2.30
2018-12-08T20:48:37.053Z,2.23
2018-12-08T20:51:05.856Z,2.19
2018-12-08T20:53:34.627Z,2.05
2018-12-08T20:56:03.658Z,1.98
2018-12-08T20:58:32.460Z,1.95
2018-12-08T21:01:01.223Z,1.90
2018-12-08T21:03:30.036Z,1.92
2018-12-08T21:05:58.985Z,1.91
2018-12-08T21:08:27.862Z,1.89
2018-12-08T21:10:56.670Z,1.97
2018-12-08T21:13:25.463Z,1.92
2018-12-08T21:15:54.260Z,1.95
2018-12-08T21:18:24.027Z,1.89
2018-12-08T21:20:52.886Z,2.02
2018-12-08T21:23:21.739Z,1.93
2018-12-08T21:25:50.587Z,1.90
2018-12-08T21:28:19.368Z,1.92
2018-12-08T21:30:48.379Z,1.89
2018-12-08T21:33:17.218Z,1.96
2018-12-08T21:35:46.073Z,1.97
2018-12-08T21:38:14.903Z,2.05
2018-12-08T21:40:43.854Z,2.13
2018-12-08T21:43:12.791Z,2.20
2018-12-08T21:45:41.663Z,2.24
2018-12-08T21:48:10.657Z,2.29
2018-12-08T21:50:39.515Z,2.28
2018-12-08T21:53:08.370Z,2.26
2018-12-08T21:55:37.376Z,2.39
2018-12-08T21:58:06.285Z,2.46
2018-12-08T22:00:35.290Z,2.58
2018-12-08T22:03:04.312Z,2.60
2018-12-08T22:05:33.267Z,2.65
2018-12-08T22:08:02.132Z,2.76
2018-12-08T22:10:30.979Z,2.88
2018-12-08T22:12:59.828Z,2.90
2018-12-08T22:15:28.719Z,2.87
2018-12-08T22:17:57.575Z,2.85
2018-12-08T22:20:26.396Z,2.92
2018-12-08T22:22:55.252Z,2.94
2018-12-08T22:25:24.055Z,2.82
2018-12-08T22:27:52.916Z,2.77
2018-12-08T22:30:21.842Z,2.78
2018-12-08T22:32:50.576Z,2.81
2018-12-08T22:35:19.455Z,2.80
